Treviso / Sant'Angelo Airport LIPH

Flugplatz Daten

Name: Treviso / Sant'Angelo Airport

Ident: LIPH

Lat: 45,64839935

Long: 12,19439983

Platzhöhe: 59 ft

IataCode: TSF

City: Treviso

Homepage: http://www.trevisoairport.it/tsf/index.jsp?_requestid=677517&language=en

Metar

2021/12/04 00:20
LIPH 040020Z AUTO 02005KT 9999 BKN054 BKN230 03/M01 Q1015

Taf

2021/12/03 00:00
TAF LIPH 032300Z 0400/0424 VRB05KT 9999 SCT030
Gewünschte Webcam nicht vorhanden? Dann fügen Sie eine hinzu. Sie wird dann so schnell wie möglich freigeschaltet
Url: Title: